createdAt,value
2023-03-17T00:01:55.061Z,70.57
2023-03-17T00:04:26.489Z,70.43
2023-03-17T00:06:54.435Z,70.90
2023-03-17T00:09:22.529Z,70.19
2023-03-17T00:11:50.161Z,70.03
2023-03-17T00:14:18.137Z,70.24
2023-03-17T00:16:51.474Z,72.76
2023-03-17T00:19:31.460Z,72.75
2023-03-17T00:22:00.008Z,72.25
2023-03-17T00:24:27.471Z,70.03
2023-03-17T00:26:54.155Z,69.46
2023-03-17T00:29:21.085Z,69.74
2023-03-17T00:31:48.115Z,69.64
2023-03-17T00:34:18.573Z,68.32
2023-03-17T00:36:50.596Z,68.90
2023-03-17T00:39:18.596Z,69.86
2023-03-17T00:44:12.476Z,71.67
2023-03-17T00:46:39.543Z,70.79
2023-03-17T00:49:19.205Z,69.90
2023-03-17T00:51:46.296Z,69.71
2023-03-17T00:54:14.195Z,70.11
2023-03-17T00:56:42.372Z,70.44
2023-03-17T00:59:30.593Z,70.63
2023-03-17T01:01:57.488Z,70.09
2023-03-17T01:04:24.221Z,69.90
2023-03-17T01:06:52.352Z,70.16
2023-03-17T01:09:20.561Z,70.32
2023-03-17T01:11:48.736Z,71.06
2023-03-17T01:14:16.822Z,70.71
2023-03-17T01:16:44.838Z,71.25
2023-03-17T01:19:13.529Z,71.66
2023-03-17T01:21:41.651Z,70.47
2023-03-17T01:24:08.392Z,70.40
2023-03-17T01:26:35.234Z,70.50
2023-03-17T01:29:01.898Z,70.06
2023-03-17T01:31:28.741Z,69.37
2023-03-17T01:33:55.447Z,71.08
2023-03-17T01:36:22.108Z,71.63
2023-03-17T01:38:50.828Z,71.03
2023-03-17T01:41:22.952Z,69.30
2023-03-17T01:43:49.968Z,69.57
2023-03-17T01:46:27.856Z,69.48
2023-03-17T01:49:16.160Z,69.35
2023-03-17T01:51:51.858Z,69.79
2023-03-17T01:54:28.268Z,70.12
2023-03-17T01:56:58.805Z,69.77
2023-03-17T01:59:31.595Z,69.14
2023-03-17T02:02:03.719Z,68.96
2023-03-17T02:04:31.450Z,69.36
2023-03-17T02:06:59.180Z,69.68
2023-03-17T02:09:27.780Z,69.02
2023-03-17T02:11:55.698Z,69.17
2023-03-17T02:14:22.606Z,68.61
2023-03-17T02:16:49.473Z,69.44
2023-03-17T02:19:16.973Z,69.96
2023-03-17T02:21:50.204Z,68.79
2023-03-17T02:24:43.392Z,68.83
2023-03-17T02:27:24.353Z,67.75
2023-03-17T02:29:50.987Z,67.75
2023-03-17T02:32:18.898Z,68.06
2023-03-17T02:34:48.833Z,68.26
2023-03-17T02:37:16.500Z,68.08
2023-03-17T02:39:43.206Z,68.49
2023-03-17T02:42:10.722Z,68.86
2023-03-17T02:44:37.360Z,69.52
2023-03-17T02:47:04.632Z,69.28
2023-03-17T02:49:32.017Z,69.77
2023-03-17T02:51:58.686Z,69.53
2023-03-17T02:54:25.633Z,69.82
2023-03-17T02:56:52.333Z,69.16
2023-03-17T02:59:19.073Z,68.37
2023-03-17T03:01:48.569Z,68.27
2023-03-17T03:04:15.307Z,68.22
2023-03-17T03:06:42.688Z,68.12
2023-03-17T03:09:11.742Z,68.12
2023-03-17T03:11:39.461Z,68.33
2023-03-17T03:14:06.979Z,68.65
2023-03-17T03:16:34.208Z,69.89
2023-03-17T03:19:00.909Z,70.49
2023-03-17T03:21:27.683Z,69.62
2023-03-17T03:23:54.423Z,70.15
2023-03-17T03:26:21.574Z,69.70
2023-03-17T03:28:48.242Z,69.59
2023-03-17T03:31:14.977Z,69.67
2023-03-17T03:33:42.699Z,68.71
2023-03-17T03:36:09.529Z,69.47
2023-03-17T03:38:36.181Z,68.59
2023-03-17T03:41:03.232Z,68.74
2023-03-17T03:43:29.910Z,68.32
2023-03-17T03:45:56.724Z,68.14
2023-03-17T03:48:23.363Z,68.95
2023-03-17T03:50:51.277Z,68.28
2023-03-17T03:53:17.920Z,68.08
2023-03-17T03:55:44.551Z,67.45
2023-03-17T03:58:11.444Z,67.73
2023-03-17T04:00:38.109Z,67.43
2023-03-17T04:03:04.934Z,67.48
2023-03-17T04:05:31.843Z,67.53
2023-03-17T04:07:58.525Z,67.24
2023-03-17T04:10:25.548Z,67.70
2023-03-17T04:12:52.168Z,68.35
2023-03-17T04:15:19.950Z,68.71
2023-03-17T04:17:46.660Z,68.33
2023-03-17T04:20:15.084Z,70.49
2023-03-17T04:22:42.101Z,71.14
2023-03-17T04:25:10.357Z,69.09
2023-03-17T04:27:37.613Z,68.14
2023-03-17T04:30:05.490Z,67.05
2023-03-17T04:32:32.249Z,67.53
2023-03-17T04:34:59.033Z,67.30
2023-03-17T04:37:25.852Z,67.35
2023-03-17T04:39:53.211Z,67.85
2023-03-17T04:42:19.843Z,67.87
2023-03-17T04:44:46.568Z,68.06
2023-03-17T04:47:13.145Z,68.29
2023-03-17T04:49:39.866Z,69.05
2023-03-17T04:52:06.806Z,68.26
2023-03-17T04:54:33.397Z,69.72
2023-03-17T04:57:00.017Z,68.57
2023-03-17T04:59:27.385Z,68.62
2023-03-17T05:01:54.102Z,68.19
2023-03-17T05:04:31.209Z,69.05
2023-03-17T05:06:58.872Z,68.54
2023-03-17T05:09:26.916Z,68.01
2023-03-17T05:11:53.664Z,69.45
2023-03-17T05:14:20.886Z,68.67
2023-03-17T05:16:48.494Z,68.33
2023-03-17T05:19:16.462Z,67.36
2023-03-17T05:21:43.743Z,66.93
2023-03-17T05:24:10.537Z,67.96
2023-03-17T05:26:37.220Z,68.40
2023-03-17T05:29:04.072Z,68.40
2023-03-17T05:31:31.630Z,66.55
2023-03-17T05:33:58.530Z,66.53
2023-03-17T05:36:25.218Z,69.99
2023-03-17T05:38:52.457Z,67.93
2023-03-17T05:41:19.266Z,67.06
2023-03-17T05:43:46.124Z,67.21
2023-03-17T05:46:12.992Z,67.32
2023-03-17T05:48:39.652Z,66.84
2023-03-17T05:51:06.726Z,66.57
2023-03-17T05:53:33.751Z,65.95
2023-03-17T05:56:00.357Z,66.42
2023-03-17T05:58:27.055Z,66.40
2023-03-17T06:00:53.800Z,64.86
2023-03-17T06:03:21.623Z,65.55
2023-03-17T06:05:48.606Z,65.78
2023-03-17T06:08:15.249Z,66.11
2023-03-17T06:10:43.138Z,67.68
2023-03-17T06:13:11.006Z,67.77
2023-03-17T06:15:37.985Z,66.65
2023-03-17T06:18:05.755Z,66.44
2023-03-17T06:20:33.202Z,67.84
2023-03-17T06:23:05.037Z,66.79
2023-03-17T06:25:33.117Z,65.57
2023-03-17T06:28:02.626Z,66.36
2023-03-17T06:30:30.810Z,65.58
2023-03-17T06:32:57.601Z,66.92
2023-03-17T06:35:25.256Z,66.62
2023-03-17T06:37:52.137Z,66.47
2023-03-17T06:40:18.985Z,65.93
2023-03-17T06:42:45.752Z,67.48
2023-03-17T06:45:12.958Z,67.28
2023-03-17T06:47:39.960Z,66.99
2023-03-17T06:50:09.814Z,66.27
2023-03-17T06:52:37.608Z,65.97
2023-03-17T06:55:05.339Z,66.40
2023-03-17T06:57:32.563Z,65.22
2023-03-17T06:59:59.127Z,65.10
2023-03-17T07:02:26.461Z,65.99
2023-03-17T07:04:53.490Z,65.82
2023-03-17T07:07:21.227Z,66.60
2023-03-17T07:09:48.089Z,68.23
2023-03-17T07:12:15.850Z,67.02
2023-03-17T07:14:42.476Z,65.88
2023-03-17T07:17:13.154Z,66.39
2023-03-17T07:19:40.659Z,67.21
2023-03-17T07:22:09.517Z,64.95
2023-03-17T07:24:36.310Z,65.05
2023-03-17T07:27:02.972Z,65.08
2023-03-17T07:29:29.909Z,65.79
2023-03-17T07:31:56.592Z,66.48
2023-03-17T07:34:24.127Z,65.10
2023-03-17T07:36:51.088Z,65.34
2023-03-17T07:39:17.793Z,66.14
2023-03-17T07:41:44.642Z,65.55
2023-03-17T07:44:11.584Z,65.71
2023-03-17T07:46:39.058Z,66.00
2023-03-17T07:49:06.310Z,64.20
2023-03-17T07:51:33.476Z,64.36
2023-03-17T07:54:03.683Z,64.60
2023-03-17T07:56:31.442Z,65.35
2023-03-17T07:58:59.206Z,64.47
2023-03-17T08:01:27.856Z,64.92
2023-03-17T08:03:55.750Z,64.56
2023-03-17T08:06:25.444Z,64.74
2023-03-17T08:08:53.157Z,65.50
2023-03-17T08:11:20.200Z,65.07
2023-03-17T08:13:47.971Z,64.91
2023-03-17T08:16:14.677Z,65.09
2023-03-17T08:18:41.628Z,64.24
2023-03-17T08:21:08.320Z,64.15
2023-03-17T08:23:35.370Z,64.06
2023-03-17T08:26:04.087Z,64.00
2023-03-17T08:28:31.487Z,64.99
2023-03-17T08:31:17.221Z,63.73
2023-03-17T08:33:50.588Z,62.97
2023-03-17T08:36:18.621Z,62.26
2023-03-17T08:38:46.939Z,63.55
2023-03-17T08:41:16.669Z,63.19
2023-03-17T08:43:44.136Z,62.61
2023-03-17T08:46:31.730Z,63.67
2023-03-17T08:48:59.752Z,63.05
2023-03-17T08:51:32.544Z,62.90
2023-03-17T08:53:59.844Z,61.21
2023-03-17T08:56:27.445Z,59.97
2023-03-17T08:58:54.544Z,60.83
2023-03-17T09:01:22.975Z,60.75
2023-03-17T09:03:50.751Z,60.83
2023-03-17T09:06:18.094Z,58.74
2023-03-17T09:08:47.369Z,60.08
2023-03-17T09:11:16.763Z,58.40
2023-03-17T09:13:44.858Z,59.71
2023-03-17T09:16:11.557Z,60.51
2023-03-17T09:18:39.344Z,59.96
2023-03-17T09:21:06.637Z,57.86
2023-03-17T09:23:33.754Z,57.90
2023-03-17T09:26:02.205Z,58.18
2023-03-17T09:28:29.307Z,58.58
2023-03-17T09:31:03.925Z,57.45
2023-03-17T09:33:31.056Z,57.94
2023-03-17T09:35:58.170Z,57.07
2023-03-17T09:38:26.401Z,58.39
2023-03-17T09:40:53.013Z,60.76
2023-03-17T09:43:34.180Z,59.73
2023-03-17T09:46:25.366Z,61.43
2023-03-17T09:49:02.187Z,59.88
2023-03-17T09:51:32.455Z,57.05
2023-03-17T09:54:02.434Z,57.37
2023-03-17T09:56:35.039Z,58.08
2023-03-17T09:59:32.233Z,59.24
2023-03-17T10:01:59.023Z,57.71
2023-03-17T10:04:25.941Z,58.07
2023-03-17T10:07:02.668Z,59.24
2023-03-17T10:09:51.435Z,58.32
2023-03-17T10:12:25.089Z,57.70
2023-03-17T10:14:58.251Z,56.55
2023-03-17T10:17:35.750Z,57.87
2023-03-17T10:20:11.567Z,56.66
2023-03-17T10:23:01.714Z,56.11
2023-03-17T10:25:31.893Z,56.26
2023-03-17T10:28:31.710Z,53.93
2023-03-17T10:31:13.572Z,55.04
2023-03-17T10:33:40.347Z,55.12
2023-03-17T10:36:09.650Z,54.72
2023-03-17T10:38:36.994Z,54.17
2023-03-17T10:41:13.495Z,55.12
2023-03-17T10:43:45.779Z,56.67
2023-03-17T10:46:25.773Z,57.40
2023-03-17T10:48:56.955Z,54.65
2023-03-17T10:51:35.834Z,56.59
2023-03-17T10:54:20.535Z,54.89
2023-03-17T10:56:50.358Z,54.39
2023-03-17T11:02:14.760Z,53.95
2023-03-17T11:04:43.411Z,54.26
2023-03-17T11:07:17.718Z,54.02
2023-03-17T11:09:50.735Z,50.98
2023-03-17T11:12:30.038Z,54.02
2023-03-17T11:15:02.224Z,55.09
2023-03-17T11:18:01.553Z,56.03
2023-03-17T11:20:46.175Z,52.38
2023-03-17T11:23:19.274Z,53.88
2023-03-17T11:25:52.380Z,51.63
2023-03-17T11:28:21.916Z,50.71
2023-03-17T11:31:20.924Z,51.03
2023-03-17T11:34:00.075Z,51.63
2023-03-17T11:36:36.308Z,50.49
2023-03-17T11:39:14.059Z,51.03
2023-03-17T11:42:11.564Z,51.32
2023-03-17T11:45:15.638Z,51.84
2023-03-17T11:48:06.809Z,51.19
2023-03-17T11:50:44.657Z,50.34
2023-03-17T11:53:26.411Z,51.76
2023-03-17T11:56:20.261Z,51.24
2023-03-17T11:58:52.621Z,50.35
2023-03-17T12:01:28.303Z,49.15
2023-03-17T12:04:16.573Z,48.88
2023-03-17T12:06:50.674Z,48.37
2023-03-17T12:09:30.840Z,51.54
2023-03-17T12:11:59.631Z,51.06
2023-03-17T12:14:30.773Z,49.61
2023-03-17T12:17:07.122Z,48.00
2023-03-17T12:20:12.713Z,47.57
2023-03-17T12:23:12.165Z,50.57
2023-03-17T12:25:51.757Z,50.56
2023-03-17T12:28:25.218Z,49.61
2023-03-17T12:31:07.881Z,51.18
2023-03-17T12:33:43.910Z,48.08
2023-03-17T12:36:17.666Z,47.49
2023-03-17T12:38:51.946Z,46.73
2023-03-17T12:41:43.920Z,45.63
2023-03-17T12:44:13.378Z,46.49
2023-03-17T12:47:12.223Z,45.90
2023-03-17T12:49:54.022Z,45.75
2023-03-17T12:52:53.063Z,47.46
2023-03-17T12:55:24.886Z,46.88
2023-03-17T12:58:08.084Z,46.61
2023-03-17T13:00:50.752Z,46.63
2023-03-17T13:03:32.791Z,48.64
2023-03-17T13:06:07.500Z,48.61
2023-03-17T13:08:42.281Z,47.75
2023-03-17T13:11:17.934Z,47.47
2023-03-17T13:14:11.707Z,46.39
2023-03-17T13:16:41.286Z,46.19
2023-03-17T13:19:26.917Z,44.18
2023-03-17T13:22:14.290Z,45.63
2023-03-17T13:24:52.605Z,48.38
2023-03-17T13:27:34.022Z,48.11
2023-03-17T13:30:26.972Z,47.31
2023-03-17T13:33:12.285Z,45.05
2023-03-17T13:35:42.725Z,43.01
2023-03-17T13:38:20.206Z,43.71
2023-03-17T13:40:59.390Z,44.76
2023-03-17T13:43:48.817Z,46.46
2023-03-17T13:46:41.852Z,45.30
2023-03-17T13:49:24.247Z,45.57
2023-03-17T13:52:16.317Z,46.09
2023-03-17T13:54:50.017Z,45.88
2023-03-17T13:57:36.147Z,45.03
2023-03-17T14:00:24.336Z,47.33
2023-03-17T14:03:02.105Z,48.25
2023-03-17T14:05:35.635Z,48.00
2023-03-17T14:08:21.726Z,47.29
2023-03-17T14:11:03.835Z,48.61
2023-03-17T14:13:49.468Z,49.75
2023-03-17T14:16:32.164Z,50.00
2023-03-17T14:19:10.949Z,47.49
2023-03-17T14:21:37.627Z,47.76
2023-03-17T14:24:24.384Z,50.12
2023-03-17T14:26:52.524Z,51.38
2023-03-17T14:29:25.289Z,50.78
2023-03-17T14:32:02.405Z,51.24
2023-03-17T14:34:29.092Z,51.45
2023-03-17T14:37:02.220Z,51.00
2023-03-17T14:39:29.456Z,51.88
2023-03-17T14:42:01.753Z,50.55
2023-03-17T14:44:36.017Z,50.19
2023-03-17T14:47:06.069Z,50.65
2023-03-17T14:49:33.801Z,50.94
2023-03-17T14:52:00.909Z,49.82
2023-03-17T14:54:32.481Z,49.74
2023-03-17T14:57:03.282Z,51.67
2023-03-17T14:59:41.852Z,52.05
2023-03-17T15:02:23.284Z,51.61
2023-03-17T15:04:53.657Z,50.46
2023-03-17T15:07:35.633Z,49.60
2023-03-17T15:10:03.571Z,48.43
2023-03-17T15:12:30.754Z,48.49
2023-03-17T15:15:09.170Z,49.03
2023-03-17T15:17:37.019Z,49.88
2023-03-17T15:20:13.461Z,48.96
2023-03-17T15:22:43.406Z,49.67
2023-03-17T15:25:31.966Z,49.51
2023-03-17T15:27:59.039Z,48.30
2023-03-17T15:30:29.535Z,49.74
2023-03-17T15:33:00.999Z,50.65
2023-03-17T15:35:27.739Z,51.08
2023-03-17T15:37:55.076Z,51.11
2023-03-17T15:40:23.202Z,52.09
2023-03-17T15:42:49.829Z,50.48
2023-03-17T15:45:17.768Z,49.06
2023-03-17T15:47:47.059Z,48.69
2023-03-17T15:50:22.201Z,49.14
2023-03-17T15:52:49.050Z,49.32
2023-03-17T15:55:20.986Z,50.25
2023-03-17T15:57:54.740Z,49.61
2023-03-17T16:00:23.965Z,50.41
2023-03-17T16:02:55.001Z,50.77
2023-03-17T16:05:24.496Z,50.20
2023-03-17T16:07:51.628Z,49.88
2023-03-17T16:10:25.476Z,50.37
2023-03-17T16:12:52.612Z,50.34
2023-03-17T16:15:28.113Z,50.69
2023-03-17T16:17:58.418Z,51.28
2023-03-17T16:20:34.046Z,51.18
2023-03-17T16:23:07.401Z,50.93
2023-03-17T16:25:34.201Z,50.63
2023-03-17T16:28:07.469Z,50.95
2023-03-17T16:30:34.839Z,49.54
2023-03-17T16:33:09.169Z,52.08
2023-03-17T16:35:35.977Z,51.88
2023-03-17T16:38:02.569Z,51.58
2023-03-17T16:40:35.868Z,52.34
2023-03-17T16:43:12.956Z,49.99
2023-03-17T16:45:42.486Z,49.30
2023-03-17T16:48:13.568Z,51.15
2023-03-17T16:50:40.818Z,51.88
2023-03-17T16:53:07.658Z,52.37
2023-03-17T16:55:34.722Z,51.50
2023-03-17T16:58:07.224Z,52.24
2023-03-17T17:00:34.283Z,52.40
2023-03-17T17:03:00.932Z,51.98
2023-03-17T17:05:30.192Z,50.27
2023-03-17T17:07:58.172Z,50.43
2023-03-17T17:10:27.369Z,52.39
2023-03-17T17:12:54.551Z,51.04
2023-03-17T17:15:22.613Z,50.73
2023-03-17T17:17:51.872Z,50.86
2023-03-17T17:20:23.841Z,49.60
2023-03-17T17:22:51.194Z,49.83
2023-03-17T17:25:18.736Z,50.84
2023-03-17T17:27:46.366Z,50.80
2023-03-17T17:30:16.551Z,49.68
2023-03-17T17:32:43.741Z,49.58
2023-03-17T17:35:10.427Z,48.90
2023-03-17T17:37:37.512Z,48.75
2023-03-17T17:40:05.915Z,48.79
2023-03-17T17:42:32.559Z,49.68
2023-03-17T17:44:59.515Z,48.59
2023-03-17T17:47:26.153Z,48.41
2023-03-17T17:49:52.866Z,48.34
2023-03-17T17:52:19.545Z,48.45
2023-03-17T17:54:46.282Z,47.87
2023-03-17T17:57:13.431Z,48.17
2023-03-17T17:59:40.442Z,47.78
2023-03-17T18:02:07.312Z,47.62
2023-03-17T18:04:34.060Z,47.50
2023-03-17T18:07:00.847Z,48.20
2023-03-17T18:09:27.838Z,48.18
2023-03-17T18:11:54.493Z,49.56
2023-03-17T18:14:21.643Z,48.69
2023-03-17T18:16:48.493Z,48.52
2023-03-17T18:19:15.880Z,48.32
2023-03-17T18:21:43.113Z,48.66
2023-03-17T18:24:10.457Z,48.50
2023-03-17T18:26:37.188Z,49.13
2023-03-17T18:29:03.879Z,49.51
2023-03-17T18:31:34.858Z,49.47
2023-03-17T18:34:21.857Z,49.32
2023-03-17T18:36:49.938Z,50.53
2023-03-17T18:39:16.746Z,51.12
2023-03-17T18:41:44.731Z,51.13
2023-03-17T18:44:11.972Z,50.78
2023-03-17T18:46:38.657Z,50.57
2023-03-17T18:49:06.414Z,50.83
2023-03-17T18:51:33.927Z,50.62
2023-03-17T18:54:00.599Z,51.23
2023-03-17T18:56:29.324Z,50.72
2023-03-17T18:58:57.167Z,51.12
2023-03-17T19:01:24.757Z,50.45
2023-03-17T19:03:51.941Z,50.79
2023-03-17T19:06:20.700Z,51.06
2023-03-17T19:08:48.389Z,51.73
2023-03-17T19:11:17.265Z,52.78
2023-03-17T19:13:45.576Z,53.90
2023-03-17T19:16:13.177Z,54.30
2023-03-17T19:18:42.238Z,53.21
2023-03-17T19:21:09.742Z,52.86
2023-03-17T19:23:38.275Z,52.84
2023-03-17T19:26:06.248Z,52.23
2023-03-17T19:28:33.680Z,52.16
2023-03-17T19:31:00.779Z,52.57
2023-03-17T19:33:28.983Z,52.95
2023-03-17T19:35:58.724Z,52.83
2023-03-17T19:38:32.761Z,52.93
2023-03-17T19:40:59.490Z,52.93
2023-03-17T19:43:40.032Z,52.75
2023-03-17T19:46:12.114Z,52.00
2023-03-17T19:48:39.634Z,52.63
2023-03-17T19:51:06.929Z,52.29
2023-03-17T19:53:34.168Z,52.05
2023-03-17T19:56:02.208Z,52.67
2023-03-17T19:58:28.896Z,53.12
2023-03-17T20:00:56.385Z,52.58
2023-03-17T20:03:25.651Z,53.00
2023-03-17T20:05:53.728Z,53.28
2023-03-17T20:08:22.355Z,54.78
2023-03-17T20:10:54.039Z,54.14
2023-03-17T20:13:21.960Z,54.54
2023-03-17T20:15:50.142Z,54.37
2023-03-17T20:18:17.177Z,54.23
2023-03-17T20:20:49.505Z,54.16
2023-03-17T20:23:17.472Z,54.31
2023-03-17T20:25:44.591Z,54.22
2023-03-17T20:28:12.333Z,54.24
2023-03-17T20:30:39.959Z,54.14
2023-03-17T20:33:08.328Z,54.97
2023-03-17T20:35:35.463Z,54.82
2023-03-17T20:38:02.305Z,54.89
2023-03-17T20:40:29.417Z,55.00
2023-03-17T20:42:56.533Z,54.72
2023-03-17T20:45:23.266Z,55.81
2023-03-17T20:47:50.168Z,54.93
2023-03-17T20:50:17.085Z,55.09
2023-03-17T20:52:43.785Z,54.81
2023-03-17T20:55:13.963Z,55.00
2023-03-17T20:57:42.126Z,55.78
2023-03-17T21:00:12.993Z,56.62
2023-03-17T21:02:39.676Z,57.72
2023-03-17T21:05:07.472Z,58.57
2023-03-17T21:07:34.074Z,59.03
2023-03-17T21:10:02.229Z,58.41
2023-03-17T21:12:28.909Z,57.76
2023-03-17T21:14:55.928Z,57.58
2023-03-17T21:17:25.554Z,57.47
2023-03-17T21:19:54.114Z,57.03
2023-03-17T21:22:20.942Z,56.20
2023-03-17T21:24:47.462Z,55.76
2023-03-17T21:27:14.138Z,55.79
2023-03-17T21:29:40.972Z,55.93
2023-03-17T21:32:08.577Z,56.38
2023-03-17T21:34:37.144Z,56.87
2023-03-17T21:37:04.443Z,57.46
2023-03-17T21:39:32.741Z,57.44
2023-03-17T21:42:01.344Z,58.85
2023-03-17T21:44:28.276Z,59.81
2023-03-17T21:46:56.701Z,58.61
2023-03-17T21:49:24.836Z,57.65
2023-03-17T21:51:51.716Z,56.86
2023-03-17T21:54:19.318Z,56.71
2023-03-17T21:56:46.328Z,55.80
2023-03-17T21:59:14.693Z,56.54
2023-03-17T22:01:43.228Z,57.01
2023-03-17T22:04:10.722Z,56.78
2023-03-17T22:06:37.346Z,57.29
2023-03-17T22:09:05.487Z,56.40
2023-03-17T22:11:32.212Z,55.99
2023-03-17T22:13:59.072Z,55.95
2023-03-17T22:16:26.015Z,55.55
2023-03-17T22:18:52.856Z,55.68
2023-03-17T22:21:20.535Z,55.24
2023-03-17T22:23:47.888Z,54.94
2023-03-17T22:26:16.838Z,55.57
2023-03-17T22:28:44.833Z,55.04
2023-03-17T22:31:16.986Z,55.59
2023-03-17T22:33:44.185Z,56.69
2023-03-17T22:36:11.504Z,57.36
2023-03-17T22:38:38.427Z,57.79
2023-03-17T22:41:08.423Z,56.98
2023-03-17T22:43:36.810Z,57.10
2023-03-17T22:46:03.871Z,56.70
2023-03-17T22:48:32.592Z,56.59
2023-03-17T22:51:03.536Z,56.13
2023-03-17T22:53:31.589Z,56.50
2023-03-17T22:55:59.030Z,56.10
2023-03-17T22:58:26.577Z,56.16
2023-03-17T23:00:54.239Z,56.19
2023-03-17T23:03:21.110Z,56.16
2023-03-17T23:05:49.897Z,56.56
2023-03-17T23:08:17.907Z,56.35
2023-03-17T23:10:45.908Z,57.04
2023-03-17T23:13:12.708Z,57.16
2023-03-17T23:15:39.375Z,56.48
2023-03-17T23:18:06.521Z,55.88
2023-03-17T23:20:33.919Z,56.28
2023-03-17T23:23:00.932Z,55.96
2023-03-17T23:25:27.571Z,55.84
2023-03-17T23:27:54.928Z,55.59
2023-03-17T23:30:21.680Z,56.27
2023-03-17T23:32:49.367Z,56.86
2023-03-17T23:35:17.495Z,56.23
2023-03-17T23:37:45.129Z,55.96
2023-03-17T23:40:17.373Z,56.18
2023-03-17T23:42:46.029Z,56.11
2023-03-17T23:45:15.341Z,55.75
2023-03-17T23:47:42.921Z,55.90
2023-03-17T23:50:11.752Z,56.15
2023-03-17T23:52:38.629Z,56.21
2023-03-17T23:55:06.775Z,56.91
2023-03-17T23:57:34.741Z,57.34
